createdAt,value
2023-07-05T00:00:07.047Z,100601.56
2023-07-05T00:02:33.604Z,100606.19
2023-07-05T00:05:00.330Z,100599.97
2023-07-05T00:07:26.883Z,100603.75
2023-07-05T00:09:53.441Z,100608.50
2023-07-05T00:12:20.914Z,100600.28
2023-07-05T00:14:47.443Z,100582.13
2023-07-05T00:17:13.981Z,100588.66
2023-07-05T00:19:40.443Z,100564.16
2023-07-05T00:22:06.893Z,100555.06
2023-07-05T00:24:33.357Z,100558.84
2023-07-05T00:26:59.846Z,100549.78
2023-07-05T00:29:27.814Z,100538.97
2023-07-05T00:31:54.286Z,100531.75
2023-07-05T00:34:20.808Z,100525.44
2023-07-05T00:36:47.280Z,100516.38
2023-07-05T00:39:13.707Z,100507.28
2023-07-05T00:41:40.153Z,100488.28
2023-07-05T00:44:06.765Z,100480.06
2023-07-05T00:46:35.518Z,100468.25
2023-07-05T00:49:13.913Z,100457.47
2023-07-05T00:51:47.348Z,100453.00
2023-07-05T00:54:18.336Z,100431.09
2023-07-05T00:56:57.123Z,100425.63
2023-07-05T00:59:27.343Z,100396.53
2023-07-05T01:02:03.091Z,100400.31
2023-07-05T01:04:34.437Z,100404.06
2023-07-05T01:07:01.520Z,100405.06
2023-07-05T01:09:28.183Z,100384.22
2023-07-05T01:12:16.634Z,100389.69
2023-07-05T01:15:07.638Z,100388.81
2023-07-05T01:17:50.779Z,100386.22
2023-07-05T01:20:48.399Z,100364.34
2023-07-05T01:23:52.581Z,100374.41
2023-07-05T01:26:47.433Z,100352.66
2023-07-05T01:29:41.983Z,100352.66
2023-07-05T01:32:17.649Z,100353.69
2023-07-05T01:34:52.827Z,100350.94
2023-07-05T01:37:30.195Z,100339.13
2023-07-05T01:39:56.711Z,100338.28
2023-07-05T01:42:27.708Z,100328.38
2023-07-05T01:44:54.317Z,100325.63
2023-07-05T01:47:41.580Z,100312.09
2023-07-05T01:50:16.435Z,100332.97
2023-07-05T01:52:55.303Z,100313.09
2023-07-05T01:55:30.197Z,100319.63
2023-07-05T01:58:10.687Z,100319.75
2023-07-05T02:00:39.858Z,100330.72
2023-07-05T02:03:11.814Z,100321.50
2023-07-05T02:05:38.438Z,100307.97
2023-07-05T02:08:06.042Z,100318.03
2023-07-05T02:10:33.451Z,100311.69
2023-07-05T02:13:03.674Z,100311.69
2023-07-05T02:15:30.161Z,100320.94
2023-07-05T02:17:56.736Z,100320.09
2023-07-05T02:20:23.311Z,100314.63
2023-07-05T02:22:49.842Z,100320.09
2023-07-05T02:25:16.469Z,100318.38
2023-07-05T02:27:42.950Z,100318.38
2023-07-05T02:30:10.701Z,100316.63
2023-07-05T02:32:37.587Z,100327.59
2023-07-05T02:35:04.588Z,100326.75
2023-07-05T02:37:33.603Z,100334.09
2023-07-05T02:40:00.187Z,100334.09
2023-07-05T02:42:26.592Z,100335.09
2023-07-05T02:44:53.116Z,100334.25
2023-07-05T02:47:21.147Z,100334.25
2023-07-05T02:49:47.898Z,100341.59
2023-07-05T02:52:15.244Z,100344.50
2023-07-05T02:54:41.837Z,100347.25
2023-07-05T02:57:08.503Z,100349.97
2023-07-05T02:59:35.062Z,100350.13
2023-07-05T03:02:01.793Z,100354.72
2023-07-05T03:04:31.544Z,100358.34
2023-07-05T03:06:58.244Z,100349.44
2023-07-05T03:09:24.693Z,100354.06
2023-07-05T03:11:51.201Z,100353.19
2023-07-05T03:14:17.674Z,100349.59
2023-07-05T03:16:45.369Z,100351.47
2023-07-05T03:19:12.250Z,100344.28
2023-07-05T03:21:39.167Z,100348.03
2023-07-05T03:24:05.869Z,100338.09
2023-07-05T03:26:32.360Z,100343.56
2023-07-05T03:28:58.839Z,100349.22
2023-07-05T03:31:25.275Z,100334.69
2023-07-05T03:33:53.844Z,100341.16
2023-07-05T03:36:21.446Z,100343.91
2023-07-05T03:38:51.939Z,100341.31
2023-07-05T03:41:23.064Z,100343.22
2023-07-05T03:43:54.843Z,100338.03
2023-07-05T03:46:21.430Z,100332.56
2023-07-05T03:48:47.961Z,100342.34
2023-07-05T03:51:21.113Z,100333.97
2023-07-05T03:53:56.335Z,100343.91
2023-07-05T03:56:24.356Z,100334.69
2023-07-05T03:58:51.340Z,100343.75
2023-07-05T04:01:21.044Z,100334.50
2023-07-05T04:03:59.913Z,100329.22
2023-07-05T04:06:32.346Z,100329.22
2023-07-05T04:08:59.104Z,100321.00
2023-07-05T04:11:25.848Z,100322.00
2023-07-05T04:13:54.906Z,100324.69
2023-07-05T04:16:25.328Z,100330.41
2023-07-05T04:18:52.950Z,100328.72
2023-07-05T04:21:19.800Z,100334.72
2023-07-05T04:23:46.437Z,100308.78
2023-07-05T04:26:15.659Z,100321.97
2023-07-05T04:28:43.805Z,100324.72
2023-07-05T04:31:13.536Z,100332.78
2023-07-05T04:33:40.072Z,100317.47
2023-07-05T04:36:16.580Z,100331.00
2023-07-05T04:38:53.115Z,100315.34
2023-07-05T04:41:19.607Z,100318.00
2023-07-05T04:43:46.098Z,100321.72
2023-07-05T04:46:12.704Z,100331.06
2023-07-05T04:48:39.240Z,100314.72
2023-07-05T04:51:06.923Z,100327.38
2023-07-05T04:53:33.462Z,100320.94
2023-07-05T04:56:01.427Z,100317.81
2023-07-05T04:58:27.942Z,100335.44
2023-07-05T05:01:03.934Z,100347.34
2023-07-05T05:03:31.401Z,100334.97
2023-07-05T05:05:58.093Z,100330.53
2023-07-05T05:08:25.226Z,100333.50
2023-07-05T05:10:54.094Z,100331.47
2023-07-05T05:13:21.760Z,100336.88
2023-07-05T05:15:49.233Z,100322.66
2023-07-05T05:18:16.150Z,100327.66
2023-07-05T05:20:42.654Z,100328.22
2023-07-05T05:23:09.817Z,100322.31
2023-07-05T05:25:36.886Z,100319.13
2023-07-05T05:28:03.418Z,100324.16
2023-07-05T05:30:32.484Z,100332.63
2023-07-05T05:32:59.304Z,100318.66
2023-07-05T05:35:25.901Z,100315.63
2023-07-05T05:37:52.362Z,100319.91
2023-07-05T05:40:18.925Z,100324.25
2023-07-05T05:42:46.006Z,100322.06
2023-07-05T05:45:12.798Z,100318.16
2023-07-05T05:47:39.477Z,100312.38
2023-07-05T05:50:06.832Z,100310.06
2023-07-05T05:52:34.899Z,100305.16
2023-07-05T05:55:01.408Z,100286.72
2023-07-05T05:57:27.873Z,100292.75
2023-07-05T05:59:54.361Z,100285.25
2023-07-05T06:02:21.195Z,100283.09
2023-07-05T06:04:47.863Z,100272.00
2023-07-05T06:07:14.331Z,100279.00
2023-07-05T06:09:46.738Z,100288.06
2023-07-05T06:12:13.502Z,100299.72
2023-07-05T06:14:40.268Z,100295.94
2023-07-05T06:17:07.894Z,100331.47
2023-07-05T06:19:34.364Z,100332.19
2023-07-05T06:22:00.902Z,100348.59
2023-07-05T06:24:27.388Z,100340.22
2023-07-05T06:26:53.862Z,100352.88
2023-07-05T06:29:20.391Z,100346.53
2023-07-05T06:31:46.750Z,100348.28
2023-07-05T06:34:13.123Z,100350.00
2023-07-05T06:36:39.642Z,100354.44
2023-07-05T06:39:06.133Z,100356.16
2023-07-05T06:41:32.652Z,100357.03
2023-07-05T06:43:59.186Z,100356.16
2023-07-05T06:46:25.797Z,100353.28
2023-07-05T06:48:52.224Z,100345.94
2023-07-05T06:51:18.796Z,100346.94
2023-07-05T06:53:49.608Z,100350.56
2023-07-05T06:56:17.877Z,100358.75
2023-07-05T06:58:44.525Z,100361.47
2023-07-05T07:01:12.963Z,100351.56
2023-07-05T07:03:39.684Z,100332.44
2023-07-05T07:06:06.215Z,100352.41
2023-07-05T07:08:35.367Z,100355.16
2023-07-05T07:11:05.987Z,100345.94
2023-07-05T07:13:37.494Z,100353.28
2023-07-05T07:16:10.803Z,100355.16
2023-07-05T07:18:38.929Z,100347.81
2023-07-05T07:21:07.908Z,100386.22
2023-07-05T07:23:34.404Z,100338.75
2023-07-05T07:26:08.126Z,100376.16
2023-07-05T07:28:34.875Z,100366.09
2023-07-05T07:31:14.316Z,100371.53
2023-07-05T07:33:41.512Z,100366.94
2023-07-05T07:36:13.421Z,100368.81
2023-07-05T07:38:41.345Z,100378.75
2023-07-05T07:41:22.269Z,100372.22
2023-07-05T07:43:53.888Z,100402.28
2023-07-05T07:46:23.759Z,100388.63
2023-07-05T07:48:52.913Z,100403.16
2023-07-05T07:51:36.427Z,100408.63
2023-07-05T07:54:05.635Z,100414.97
2023-07-05T07:56:32.346Z,100414.97
2023-07-05T07:59:00.373Z,100421.28
2023-07-05T08:01:33.317Z,100423.00
2023-07-05T08:04:02.548Z,100443.84
2023-07-05T08:06:42.107Z,100445.72
2023-07-05T08:09:14.919Z,100450.16
2023-07-05T08:11:41.846Z,100461.97
2023-07-05T08:14:09.956Z,100458.22
2023-07-05T08:16:37.391Z,100471.91
2023-07-05T08:19:03.920Z,100478.06
2023-07-05T08:21:30.510Z,100470.72
2023-07-05T08:23:57.835Z,100492.28
2023-07-05T08:26:25.249Z,100493.00
2023-07-05T08:28:51.748Z,100513.69
2023-07-05T08:31:18.350Z,100510.97
2023-07-05T08:33:46.201Z,100520.72
2023-07-05T08:36:15.833Z,100519.72
2023-07-05T08:38:50.871Z,100518.72
2023-07-05T08:41:45.507Z,100539.44
2023-07-05T08:44:39.940Z,100560.41
2023-07-05T08:47:09.442Z,100567.66
2023-07-05T08:49:41.333Z,100567.66
2023-07-05T08:52:29.970Z,100573.13
2023-07-05T08:55:00.948Z,100574.00
2023-07-05T08:57:38.976Z,100593.81
2023-07-05T09:00:12.816Z,100593.69
2023-07-05T09:02:41.055Z,100584.44
2023-07-05T09:05:24.108Z,100607.06
2023-07-05T09:08:00.864Z,100615.09
2023-07-05T09:11:03.630Z,100612.22
2023-07-05T09:13:42.597Z,100630.19
2023-07-05T09:16:40.943Z,100643.72
2023-07-05T09:19:41.070Z,100652.78
2023-07-05T09:22:12.354Z,100661.81
2023-07-05T09:24:41.746Z,100670.91
2023-07-05T09:27:18.622Z,100678.97
2023-07-05T09:30:02.119Z,100687.16
2023-07-05T09:32:38.633Z,100699.97
2023-07-05T09:35:12.506Z,100710.03
2023-07-05T09:37:42.417Z,100713.78
2023-07-05T09:40:23.698Z,100730.19
2023-07-05T09:42:58.967Z,100723.88
2023-07-05T09:45:27.176Z,100744.03
2023-07-05T09:48:03.267Z,100745.91
2023-07-05T09:50:30.518Z,100752.38
2023-07-05T09:53:21.635Z,100771.50
2023-07-05T09:56:10.393Z,100794.41
2023-07-05T09:58:37.956Z,100777.13
2023-07-05T10:01:10.124Z,100802.75
2023-07-05T10:03:38.825Z,100814.56
2023-07-05T10:06:12.016Z,100801.00
2023-07-05T10:08:47.397Z,100807.34
2023-07-05T10:11:34.895Z,100829.22
2023-07-05T10:14:04.366Z,100825.63
2023-07-05T10:16:53.081Z,100842.19
2023-07-05T10:19:21.648Z,100846.78
2023-07-05T10:22:04.451Z,100843.47
2023-07-05T10:24:33.537Z,100852.56
2023-07-05T10:27:31.806Z,100850.53
2023-07-05T10:30:14.887Z,100847.66
2023-07-05T10:32:49.587Z,100851.53
2023-07-05T10:35:29.571Z,100864.34
2023-07-05T10:37:57.107Z,100870.81
2023-07-05T10:40:24.307Z,100879.03
2023-07-05T10:42:54.729Z,100887.78
2023-07-05T10:45:22.268Z,100881.03
2023-07-05T10:47:53.488Z,100888.25
2023-07-05T10:50:32.145Z,100887.22
2023-07-05T10:53:13.683Z,100907.22
2023-07-05T10:55:53.699Z,100906.34
2023-07-05T10:58:22.827Z,100927.41
2023-07-05T11:01:02.293Z,100929.25
2023-07-05T11:03:41.833Z,100906.34
2023-07-05T11:06:10.699Z,100918.16
2023-07-05T11:08:42.383Z,100934.56
2023-07-05T11:11:20.658Z,100912.00
2023-07-05T11:13:49.589Z,100948.41
2023-07-05T11:16:19.713Z,100953.00
2023-07-05T11:18:47.645Z,100979.63
2023-07-05T11:21:49.980Z,100971.56
2023-07-05T11:24:31.672Z,100978.03
2023-07-05T11:26:59.465Z,100990.72
2023-07-05T11:29:26.309Z,100992.72
2023-07-05T11:31:52.710Z,100998.94
2023-07-05T11:34:22.072Z,101010.56
2023-07-05T11:36:52.247Z,101005.09
2023-07-05T11:39:42.918Z,101028.00
2023-07-05T11:42:18.571Z,101044.56
2023-07-05T11:44:50.098Z,101023.38
2023-07-05T11:47:25.593Z,101041.41
2023-07-05T11:50:11.640Z,101056.78
2023-07-05T11:52:41.581Z,101056.94
2023-07-05T11:55:16.537Z,101061.53
2023-07-05T11:57:54.835Z,101062.69
2023-07-05T12:00:24.813Z,101069.03
2023-07-05T12:03:06.469Z,101098.38
2023-07-05T12:05:34.780Z,101086.44
2023-07-05T12:08:14.977Z,101083.72
2023-07-05T12:10:53.734Z,101089.19
2023-07-05T12:13:24.346Z,101106.28
2023-07-05T12:15:51.882Z,101115.97
2023-07-05T12:18:19.105Z,101121.16
2023-07-05T12:20:50.170Z,101124.91
2023-07-05T12:23:19.135Z,101130.38
2023-07-05T12:25:52.264Z,101130.09
2023-07-05T12:28:22.756Z,101130.81
2023-07-05T12:30:49.853Z,101136.16
2023-07-05T12:33:25.449Z,101133.84
2023-07-05T12:36:12.957Z,101140.06
2023-07-05T12:38:43.000Z,101135.19
2023-07-05T12:41:28.451Z,101151.31
2023-07-05T12:44:03.158Z,101141.94
2023-07-05T12:46:32.406Z,101138.94
2023-07-05T12:49:21.270Z,101147.72
2023-07-05T12:51:59.303Z,101158.97
2023-07-05T12:54:27.251Z,101151.75
2023-07-05T12:56:56.578Z,101164.44
2023-07-05T12:59:36.534Z,101166.47
2023-07-05T13:02:14.847Z,101165.72
2023-07-05T13:04:45.736Z,101170.31
2023-07-05T13:07:17.373Z,101175.66
2023-07-05T13:09:44.419Z,101178.13
2023-07-05T13:12:11.458Z,101191.38
2023-07-05T13:14:42.753Z,101186.91
2023-07-05T13:17:24.569Z,101188.06
2023-07-05T13:20:13.625Z,101191.50
2023-07-05T13:22:48.613Z,101192.53
2023-07-05T13:25:44.085Z,101196.97
2023-07-05T13:28:23.828Z,101202.47
2023-07-05T13:30:58.144Z,101209.97
2023-07-05T13:33:25.573Z,101214.84
2023-07-05T13:35:52.344Z,101229.50
2023-07-05T13:38:20.339Z,101222.06
2023-07-05T13:41:04.135Z,101235.16
2023-07-05T13:43:31.788Z,101241.72
2023-07-05T13:45:58.583Z,101244.94
2023-07-05T13:48:25.125Z,101246.00
2023-07-05T13:50:51.635Z,101235.97
2023-07-05T13:53:23.963Z,101244.03
2023-07-05T13:55:50.753Z,101248.38
2023-07-05T13:58:17.853Z,101239.00
2023-07-05T14:00:46.574Z,101245.34
2023-07-05T14:03:15.083Z,101249.06
2023-07-05T14:05:41.891Z,101253.56
2023-07-05T14:08:16.114Z,101251.41
2023-07-05T14:10:47.922Z,101254.13
2023-07-05T14:13:16.730Z,101254.56
2023-07-05T14:15:45.259Z,101252.97
2023-07-05T14:18:18.625Z,101255.72
2023-07-05T14:20:46.316Z,101253.41
2023-07-05T14:23:15.729Z,101256.41
2023-07-05T14:25:52.011Z,101260.44
2023-07-05T14:28:18.496Z,101256.59
2023-07-05T14:30:47.610Z,101250.06
2023-07-05T14:33:17.927Z,101257.13
2023-07-05T14:35:44.483Z,101253.81
2023-07-05T14:38:11.079Z,101258.00
2023-07-05T14:40:38.786Z,101254.13
2023-07-05T14:43:05.892Z,101253.72
2023-07-05T14:45:34.271Z,101255.59
2023-07-05T14:48:02.526Z,101259.19
2023-07-05T14:50:32.398Z,101252.31
2023-07-05T14:53:02.362Z,101259.53
2023-07-05T14:55:29.142Z,101263.53
2023-07-05T14:57:57.006Z,101265.28
2023-07-05T15:00:25.791Z,101265.28
2023-07-05T15:03:10.005Z,101272.19
2023-07-05T15:05:37.345Z,101266.56
2023-07-05T15:08:06.494Z,101283.31
2023-07-05T15:10:34.913Z,101285.63
2023-07-05T15:13:01.464Z,101298.91
2023-07-05T15:15:33.012Z,101294.16
2023-07-05T15:17:59.562Z,101309.09
2023-07-05T15:20:27.401Z,101297.41
2023-07-05T15:22:54.370Z,101304.91
2023-07-05T15:25:22.916Z,101311.56
2023-07-05T15:27:53.025Z,101305.34
2023-07-05T15:30:21.418Z,101322.94
2023-07-05T15:32:48.526Z,101308.66
2023-07-05T15:35:18.767Z,101317.16
2023-07-05T15:37:45.505Z,101318.16
2023-07-05T15:40:13.036Z,101325.22
2023-07-05T15:42:40.066Z,101317.59
2023-07-05T15:45:08.269Z,101318.16
2023-07-05T15:47:35.875Z,101307.53
2023-07-05T15:50:06.087Z,101311.97
2023-07-05T15:52:37.025Z,101328.72
2023-07-05T15:55:04.807Z,101308.81
2023-07-05T15:57:31.765Z,101318.91
2023-07-05T15:59:59.407Z,101332.91
2023-07-05T16:02:28.530Z,101327.03
2023-07-05T16:04:55.509Z,101324.72
2023-07-05T16:07:23.363Z,101321.41
2023-07-05T16:09:49.963Z,101335.72
2023-07-05T16:12:16.423Z,101318.75
2023-07-05T16:14:43.027Z,101329.47
2023-07-05T16:17:09.517Z,101332.69
2023-07-05T16:19:36.064Z,101356.19
2023-07-05T16:22:02.532Z,101371.78
2023-07-05T16:24:29.069Z,101375.81
2023-07-05T16:26:55.605Z,101381.75
2023-07-05T16:29:22.916Z,101378.44
2023-07-05T16:31:51.636Z,101382.16
2023-07-05T16:34:18.368Z,101391.09
2023-07-05T16:36:45.467Z,101382.47
2023-07-05T16:39:15.260Z,101386.19
2023-07-05T16:41:46.109Z,101398.16
2023-07-05T16:44:13.251Z,101398.16
2023-07-05T16:46:40.444Z,101402.63
2023-07-05T16:49:07.087Z,101399.19
2023-07-05T16:51:33.828Z,101401.19
2023-07-05T16:54:01.014Z,101406.91
2023-07-05T16:56:27.797Z,101410.66
2023-07-05T16:58:54.667Z,101408.66
2023-07-05T17:01:21.312Z,101409.28
2023-07-05T17:03:48.243Z,101416.47
2023-07-05T17:06:15.177Z,101415.63
2023-07-05T17:08:43.314Z,101413.91
2023-07-05T17:11:13.022Z,101412.16
2023-07-05T17:13:39.715Z,101407.53
2023-07-05T17:16:06.387Z,101413.03
2023-07-05T17:18:34.642Z,101414.16
2023-07-05T17:21:03.649Z,101414.44
2023-07-05T17:23:30.644Z,101420.75
2023-07-05T17:25:59.801Z,101411.81
2023-07-05T17:28:30.231Z,101416.44
2023-07-05T17:31:02.424Z,101418.47
2023-07-05T17:33:29.264Z,101415.72
2023-07-05T17:35:59.769Z,101421.31
2023-07-05T17:38:27.811Z,101424.22
2023-07-05T17:40:55.359Z,101427.22
2023-07-05T17:43:22.420Z,101425.34
2023-07-05T17:45:49.026Z,101426.38
2023-07-05T17:48:15.801Z,101430.09
2023-07-05T17:50:42.369Z,101429.25
2023-07-05T17:53:08.961Z,101432.97
2023-07-05T17:55:37.199Z,101432.97
2023-07-05T17:58:04.717Z,101439.47
2023-07-05T18:00:31.890Z,101438.91
2023-07-05T18:02:58.441Z,101441.75
2023-07-05T18:05:25.246Z,101440.88
2023-07-05T18:07:51.797Z,101438.31
2023-07-05T18:10:18.396Z,101439.31
2023-07-05T18:12:45.242Z,101437.56
2023-07-05T18:15:11.829Z,101439.59
2023-07-05T18:17:40.042Z,101442.44
2023-07-05T18:20:08.843Z,101443.44
2023-07-05T18:22:35.462Z,101435.38
2023-07-05T18:25:01.909Z,101439.13
2023-07-05T18:27:28.394Z,101455.56
2023-07-05T18:29:55.759Z,101452.22
2023-07-05T18:32:22.724Z,101454.09
2023-07-05T18:34:49.213Z,101453.22
2023-07-05T18:37:15.867Z,101455.13
2023-07-05T18:39:42.322Z,101455.25
2023-07-05T18:42:09.841Z,101459.84
2023-07-05T18:44:37.693Z,101468.06
2023-07-05T18:47:05.010Z,101469.22
2023-07-05T18:49:31.623Z,101472.06
2023-07-05T18:51:58.139Z,101478.56
2023-07-05T18:54:24.642Z,101485.16
2023-07-05T18:56:51.323Z,101493.38
2023-07-05T18:59:17.793Z,101491.78
2023-07-05T19:01:44.806Z,101500.00
2023-07-05T19:04:11.984Z,101493.94
2023-07-05T19:06:39.173Z,101496.69
2023-07-05T19:09:05.862Z,101495.97
2023-07-05T19:11:33.493Z,101500.56
2023-07-05T19:14:00.163Z,101505.28
2023-07-05T19:16:27.316Z,101510.91
2023-07-05T19:18:54.121Z,101506.44
2023-07-05T19:21:20.810Z,101502.97
2023-07-05T19:23:50.768Z,101513.06
2023-07-05T19:26:19.410Z,101516.91
2023-07-05T19:28:47.533Z,101522.53
2023-07-05T19:31:29.480Z,101520.78
2023-07-05T19:33:56.574Z,101520.94
2023-07-05T19:36:25.099Z,101524.66
2023-07-05T19:38:53.445Z,101517.31
2023-07-05T19:41:21.313Z,101511.97
2023-07-05T19:43:50.678Z,101514.88
2023-07-05T19:46:23.979Z,101504.03
2023-07-05T19:48:54.183Z,101522.31
2023-07-05T19:51:21.081Z,101521.56
2023-07-05T19:53:47.520Z,101522.56
2023-07-05T19:56:15.360Z,101531.75
2023-07-05T19:58:42.731Z,101533.63
2023-07-05T20:01:10.226Z,101540.13
2023-07-05T20:03:36.933Z,101541.13
2023-07-05T20:06:04.379Z,101544.84
2023-07-05T20:08:31.138Z,101543.13
2023-07-05T20:10:57.686Z,101545.13
2023-07-05T20:13:24.224Z,101554.31
2023-07-05T20:15:58.463Z,101552.59
2023-07-05T20:18:26.015Z,101558.06
2023-07-05T20:20:56.872Z,101557.22
2023-07-05T20:23:27.297Z,101556.44
2023-07-05T20:25:54.639Z,101560.06
2023-07-05T20:28:21.529Z,101569.41
2023-07-05T20:30:57.998Z,101580.47
2023-07-05T20:33:27.683Z,101567.94
2023-07-05T20:36:02.299Z,101578.00
2023-07-05T20:38:30.317Z,101579.88
2023-07-05T20:40:58.207Z,101579.88
2023-07-05T20:43:25.336Z,101583.47
2023-07-05T20:46:10.514Z,101583.75
2023-07-05T20:48:37.427Z,101591.06
2023-07-05T20:51:09.168Z,101581.25
2023-07-05T20:53:35.912Z,101589.47
2023-07-05T20:56:03.470Z,101589.59
2023-07-05T20:58:34.765Z,101586.13
2023-07-05T21:01:02.353Z,101590.72
2023-07-05T21:03:31.001Z,101590.00
2023-07-05T21:05:58.276Z,101591.97
2023-07-05T21:08:25.584Z,101594.88
2023-07-05T21:10:53.827Z,101602.19
2023-07-05T21:13:22.789Z,101594.09
2023-07-05T21:15:53.152Z,101594.25
2023-07-05T21:18:19.716Z,101598.97
2023-07-05T21:20:46.797Z,101590.75
2023-07-05T21:23:14.462Z,101594.50
2023-07-05T21:25:40.937Z,101597.47
2023-07-05T21:28:07.516Z,101596.63
2023-07-05T21:30:34.227Z,101604.94
2023-07-05T21:33:01.015Z,101596.88
2023-07-05T21:35:32.098Z,101599.75
2023-07-05T21:37:59.076Z,101607.06
2023-07-05T21:40:28.310Z,101608.06
2023-07-05T21:42:55.842Z,101611.81
2023-07-05T21:45:25.463Z,101613.78
2023-07-05T21:47:52.128Z,101618.38
2023-07-05T21:50:21.339Z,101611.19
2023-07-05T21:52:48.982Z,101611.31
2023-07-05T21:55:16.285Z,101621.53
2023-07-05T21:57:43.240Z,101622.50
2023-07-05T22:00:10.546Z,101628.00
2023-07-05T22:02:37.572Z,101618.91
2023-07-05T22:05:05.625Z,101624.50
2023-07-05T22:07:32.198Z,101625.50
2023-07-05T22:09:58.629Z,101622.00
2023-07-05T22:12:30.395Z,101633.97
2023-07-05T22:15:00.648Z,101627.72
2023-07-05T22:17:27.747Z,101634.19
2023-07-05T22:19:56.685Z,101635.22
2023-07-05T22:22:23.484Z,101630.00
2023-07-05T22:24:50.034Z,101628.25
2023-07-05T22:27:16.619Z,101639.19
2023-07-05T22:29:43.224Z,101635.69
2023-07-05T22:32:10.033Z,101635.81
2023-07-05T22:34:36.520Z,101634.91
2023-07-05T22:37:03.223Z,101635.91
2023-07-05T22:39:29.743Z,101635.19
2023-07-05T22:41:56.320Z,101641.63
2023-07-05T22:44:23.167Z,101643.63
2023-07-05T22:46:49.717Z,101642.75
2023-07-05T22:49:16.770Z,101636.41
2023-07-05T22:51:43.273Z,101651.06
2023-07-05T22:54:09.956Z,101636.66
2023-07-05T22:56:36.507Z,101646.72
2023-07-05T22:59:04.387Z,101647.84
2023-07-05T23:01:30.878Z,101654.31
2023-07-05T23:03:57.458Z,101657.03
2023-07-05T23:06:23.924Z,101648.94
2023-07-05T23:08:50.419Z,101650.84
2023-07-05T23:11:17.036Z,101650.94
2023-07-05T23:13:44.953Z,101643.72
2023-07-05T23:16:18.189Z,101646.59
2023-07-05T23:18:46.337Z,101652.06
2023-07-05T23:21:15.282Z,101662.13
2023-07-05T23:23:41.783Z,101648.56
2023-07-05T23:26:14.369Z,101652.31
2023-07-05T23:28:40.961Z,101651.44
2023-07-05T23:31:10.442Z,101652.44
2023-07-05T23:33:36.896Z,101652.53
2023-07-05T23:36:04.715Z,101650.81
2023-07-05T23:38:33.598Z,101642.72
2023-07-05T23:41:04.028Z,101652.78
2023-07-05T23:43:32.299Z,101647.31
2023-07-05T23:46:03.138Z,101645.59
2023-07-05T23:48:32.782Z,101645.59
2023-07-05T23:50:59.825Z,101645.72
2023-07-05T23:53:26.420Z,101643.97
2023-07-05T23:55:55.604Z,101651.28
2023-07-05T23:58:26.492Z,101643.97
